Time;durP1;ratioP1;P1;durP2;ratioP2;P2;SDS_P1;SDS_P2;PMS_P1;PMS_P2;Temp;Humidity;BMP_temperature;BMP_pressure;BME280_temperature;BME280_humidity;BME280_pressure;Samples;Min_cycle;Max_cycle;Signal;HPM_P1;HPM_P2
2024/04/08 00:02:11;;;;;;;21.60;12.27;;;16.30;99.90;;;21.55;55.74;98855.47;5545644;25;20005;-79
2024/04/08 00:04:38;;;;;;;20.10;11.52;;;16.30;99.90;;;21.49;55.95;98846.41;5525865;25;20018;-78
2024/04/08 00:07:09;;;;;;;19.67;11.90;;;16.30;99.90;;;21.48;55.62;98844.72;5557467;25;19996;-79
2024/04/08 00:09:42;;;;;;;19.65;11.52;;;16.30;99.90;;;21.46;56.21;98845.94;5559170;25;20005;-79
2024/04/08 00:12:15;;;;;;;22.65;11.55;;;16.20;99.90;;;21.46;56.02;98849.44;5562525;25;20005;-79
2024/04/08 00:14:42;;;;;;;24.92;10.82;;;16.20;99.90;;;21.43;55.99;98840.97;5562943;25;20004;-79
2024/04/08 00:17:13;;;;;;;16.27;10.18;;;16.20;99.90;;;21.42;55.80;98837.47;5562987;25;20004;-80
2024/04/08 00:19:40;;;;;;;17.95;10.32;;;16.20;99.90;;;21.43;56.05;98847.13;5546610;25;20008;-80
2024/04/08 00:22:10;;;;;;;15.68;10.02;;;16.20;99.90;;;21.38;56.13;98836.19;5532714;25;20001;-78
2024/04/08 00:24:38;;;;;;;18.77;9.75;;;16.20;99.90;;;21.39;55.85;98834.34;5548358;25;19996;-78
2024/04/08 00:27:08;;;;;;;23.10;9.77;;;16.10;99.90;;;21.35;55.84;98838.38;5556065;25;20012;-77
2024/04/08 00:29:39;;;;;;;19.85;10.25;;;16.10;99.90;;;21.38;55.51;98838.00;5549196;25;20001;-78
2024/04/08 00:32:09;;;;;;;18.63;10.55;;;16.10;99.90;;;21.30;55.58;98824.81;5541948;25;20005;-78
2024/04/08 00:34:37;;;;;;;19.65;10.30;;;16.10;99.90;;;21.27;55.70;98831.31;5562737;25;20015;-78
2024/04/08 00:37:07;;;;;;;20.30;10.07;;;16.00;99.90;;;21.24;55.39;98834.31;5557779;25;20462;-77
2024/04/08 00:39:39;;;;;;;18.35;9.18;;;16.00;99.90;;;21.23;55.87;98839.84;5529469;25;20004;-80
2024/04/08 00:42:10;;;;;;;14.93;8.85;;;16.00;99.90;;;21.21;55.57;98837.34;5560492;25;20001;-78
2024/04/08 00:44:43;;;;;;;17.30;8.63;;;16.00;99.90;;;21.17;55.54;98834.22;5541285;25;20066;-78
2024/04/08 00:47:11;;;;;;;15.45;8.27;;;15.90;99.90;;;21.14;55.61;98825.81;5561719;25;20004;-78
2024/04/08 00:49:44;;;;;;;17.23;8.02;;;15.90;99.90;;;21.14;55.26;98834.59;5541414;25;20004;-78
2024/04/08 00:52:13;;;;;;;12.00;7.75;;;15.90;99.90;;;21.09;55.70;98831.66;5561785;25;20000;-78
2024/04/08 00:54:44;;;;;;;16.85;7.60;;;15.90;99.90;;;21.04;55.39;98820.69;5553766;25;20016;-78
2024/04/08 00:57:13;;;;;;;18.10;8.43;;;15.80;99.90;;;20.96;55.74;98812.78;5554202;25;20065;-80
2024/04/08 00:59:47;;;;;;;17.63;8.27;;;15.80;99.90;;;20.89;55.73;98811.84;5557556;25;20495;-80
2024/04/08 01:02:14;;;;;;;13.55;7.43;;;15.70;99.90;;;20.83;55.68;98812.56;5559285;25;20005;-81
2024/04/08 01:04:45;;;;;;;17.00;7.93;;;15.70;99.90;;;20.82;55.96;98820.72;5541522;25;20502;-80
2024/04/08 01:07:13;;;;;;;14.70;6.63;;;15.70;99.90;;;20.81;55.60;98817.25;5513820;25;20005;-82
2024/04/08 01:09:43;;;;;;;18.50;7.57;;;15.70;99.90;;;20.81;56.07;98814.59;5552266;25;20005;-81
2024/04/08 01:12:11;;;;;;;15.75;6.90;;;15.60;99.90;;;20.77;55.45;98813.31;5555632;25;20529;-81
2024/04/08 01:14:42;;;;;;;14.98;7.57;;;15.60;99.90;;;20.74;55.28;98812.84;5562478;25;21615;-80
2024/04/08 01:17:16;;;;;;;15.23;7.10;;;15.60;99.90;;;20.69;55.95;98810.69;5528704;25;19996;-81
2024/04/08 01:19:48;;;;;;;15.63;6.90;;;15.60;99.90;;;20.65;56.04;98798.75;5556401;25;20015;-82
2024/04/08 01:22:15;;;;;;;11.32;7.10;;;15.60;99.90;;;20.66;55.52;98797.75;5497974;25;19998;-81
2024/04/08 01:24:48;;;;;;;17.63;7.25;;;15.50;99.90;;;20.62;55.48;98797.28;5523461;25;20005;-80
2024/04/08 01:27:16;;;;;;;14.25;7.63;;;15.50;99.90;;;20.61;55.24;98789.50;5542615;25;20000;-80
2024/04/08 01:29:46;;;;;;;18.75;8.07;;;15.50;99.90;;;20.59;55.60;98800.31;5520611;25;20041;-79
2024/04/08 01:32:14;;;;;;;14.88;7.25;;;15.50;99.90;;;20.58;55.29;98800.50;5557342;25;20001;-79
2024/04/08 01:34:44;;;;;;;16.45;7.32;;;15.50;99.90;;;20.58;55.44;98805.81;5562485;25;20384;-81
2024/04/08 01:37:12;;;;;;;18.95;7.43;;;15.50;99.90;;;20.57;55.48;98801.50;5504803;25;19998;-79
2024/04/08 01:39:42;;;;;;;17.63;8.35;;;15.40;99.90;;;20.55;55.48;98792.84;5561822;25;20013;-81
2024/04/08 01:42:13;;;;;;;13.18;6.65;;;15.40;99.90;;;20.55;55.18;98792.84;5558106;25;20005;-81
2024/04/08 01:44:43;;;;;;;14.80;7.50;;;15.40;99.90;;;20.51;55.25;98802.22;5562481;25;20016;-81
2024/04/08 01:47:11;;;;;;;14.60;6.25;;;15.40;99.90;;;20.46;55.43;98786.78;5562478;25;20053;-81
2024/04/08 01:49:41;;;;;;;13.35;6.72;;;15.40;99.90;;;20.43;55.51;98788.97;5561843;25;20013;-80
2024/04/08 01:52:09;;;;;;;14.25;7.35;;;15.30;99.90;;;20.37;55.65;98787.84;5535681;25;20004;-79
2024/04/08 01:54:39;;;;;;;14.43;7.47;;;15.30;99.90;;;20.37;55.41;98784.34;5551809;25;19997;-78
2024/04/08 01:57:07;;;;;;;12.88;7.30;;;15.30;99.90;;;20.31;55.34;98785.06;5535542;25;20564;-80
2024/04/08 01:59:40;;;;;;;14.45;6.85;;;15.30;99.90;;;20.29;55.78;98784.41;5511009;25;20004;-80
2024/04/08 02:02:08;;;;;;;14.30;6.75;;;15.30;99.90;;;20.25;55.50;98775.94;5555222;25;20004;-79
2024/04/08 02:04:38;;;;;;;15.27;6.82;;;15.20;99.90;;;20.26;55.57;98779.41;5556377;25;20012;-79
2024/04/08 02:07:06;;;;;;;20.40;7.10;;;15.20;99.90;;;20.23;55.20;98779.78;5561579;25;20468;-79
2024/04/08 02:09:36;;;;;;;16.67;7.30;;;15.10;99.90;;;20.22;55.83;98775.47;5554276;25;20053;-80
2024/04/08 02:12:05;;;;;;;13.35;6.88;;;15.10;99.90;;;20.16;55.52;98769.84;5561348;25;20020;-78
2024/04/08 02:14:38;;;;;;;12.38;6.00;;;15.10;99.90;;;20.17;55.73;98778.66;5556963;25;20004;-78
2024/04/08 02:17:06;;;;;;;14.10;6.60;;;15.10;99.90;;;20.16;55.29;98779.66;5561726;25;20005;-79
2024/04/08 02:19:36;;;;;;;15.15;6.03;;;15.10;99.90;;;20.19;55.24;98773.97;5532037;25;19998;-78
2024/04/08 02:22:04;;;;;;;12.95;6.05;;;15.00;99.90;;;20.17;55.16;98773.34;5524113;26;20005;-80
2024/04/08 02:24:35;;;;;;;13.88;6.75;;;15.00;99.90;;;20.11;55.38;98774.88;5555646;25;20004;-80
2024/04/08 02:27:03;;;;;;;10.65;5.78;;;15.00;99.90;;;20.13;55.02;98767.53;5559381;25;20011;-80
2024/04/08 02:29:35;;;;;;;12.48;6.57;;;15.00;99.90;;;20.09;55.28;98771.56;5565149;25;20004;-78
2024/04/08 02:32:06;;;;;;;13.93;6.47;;;15.00;99.90;;;20.05;54.86;98769.44;5562843;25;20005;-78
2024/04/08 02:34:36;;;;;;;16.17;6.00;;;14.90;99.90;;;20.00;54.94;98758.50;5560101;25;20536;-78
2024/04/08 02:37:04;;;;;;;11.27;5.43;;;14.90;99.90;;;19.99;55.39;98755.00;5557402;25;20241;-78
2024/04/08 02:39:35;;;;;;;16.95;5.88;;;14.90;99.90;;;19.94;55.39;98757.38;5533370;25;20008;-77
2024/04/08 02:42:06;;;;;;;13.95;5.90;;;14.90;99.90;;;19.91;55.52;98754.25;5562210;25;20450;-78
2024/04/08 02:44:36;;;;;;;11.33;5.50;;;14.90;99.90;;;19.85;55.47;98750.47;5563947;25;20005;-78
2024/04/08 02:47:07;;;;;;;12.30;5.43;;;14.80;99.90;;;19.85;55.39;98758.44;5563143;25;20277;-77
2024/04/08 02:49:37;;;;;;;14.80;5.97;;;14.80;99.90;;;19.83;55.37;98756.94;5530541;25;20004;-78
2024/04/08 02:52:06;;;;;;;11.68;5.97;;;14.80;99.90;;;19.83;55.45;98760.41;5558341;25;19996;-78
2024/04/08 02:54:36;;;;;;;15.23;6.60;;;14.80;99.90;;;19.86;55.35;98759.25;5542878;25;20005;-78
2024/04/08 02:57:04;;;;;;;15.15;5.50;;;14.70;99.90;;;19.84;55.28;98751.47;5539367;25;20011;-79
2024/04/08 02:59:34;;;;;;;13.98;5.30;;;14.70;99.90;;;19.81;55.31;98746.50;5558291;25;20470;-80
2024/04/08 03:02:02;;;;;;;15.07;6.72;;;14.70;99.90;;;19.81;55.15;98756.28;5549072;25;20005;-81
2024/04/08 03:04:35;;;;;;;9.90;5.63;;;14.70;99.90;;;19.80;55.36;98758.13;5505305;25;20016;-80
2024/04/08 03:07:03;;;;;;;17.10;6.40;;;14.70;99.90;;;19.81;55.37;98762.44;5561933;25;20004;-80
2024/04/08 03:09:33;;;;;;;12.10;5.57;;;14.70;99.90;;;19.81;55.49;98770.41;5521459;25;19997;-80
2024/04/08 03:12:01;;;;;;;13.13;5.60;;;14.70;99.90;;;19.79;55.43;98767.06;5529258;25;20073;-81
2024/04/08 03:14:31;;;;;;;11.55;4.70;;;14.60;99.90;;;19.77;55.44;98770.91;5562051;25;20012;-80
2024/04/08 03:16:59;;;;;;;11.05;5.80;;;14.60;99.90;;;19.74;55.36;98769.44;5541398;25;19997;-80
2024/04/08 03:19:29;;;;;;;9.27;5.20;;;14.50;99.90;;;19.69;55.59;98769.94;5554531;25;20005;-80
2024/04/08 03:22:00;;;;;;;10.98;5.18;;;14.50;99.90;;;19.65;55.46;98763.34;5554136;25;20001;-81
2024/04/08 03:24:30;;;;;;;12.60;5.80;;;14.50;99.90;;;19.61;55.68;98761.22;5556514;25;20004;-81
2024/04/08 03:26:57;;;;;;;11.63;5.78;;;14.50;99.90;;;19.58;55.89;98758.91;5505654;25;20009;-81
2024/04/08 03:29:28;;;;;;;13.27;5.07;;;14.50;99.90;;;19.54;55.91;98763.72;5551299;25;20005;-81
2024/04/08 03:31:55;;;;;;;13.70;5.30;;;14.40;99.90;;;19.55;55.73;98768.03;5555313;25;20004;-81
2024/04/08 03:34:26;;;;;;;10.82;4.78;;;14.40;99.90;;;19.53;56.32;98763.88;5523930;26;20001;-82
2024/04/08 03:36:56;;;;;;;10.48;5.10;;;14.40;99.90;;;19.48;55.72;98755.63;5527073;25;19998;-82
2024/04/08 03:39:29;;;;;;;8.63;4.85;;;14.40;99.90;;;19.51;55.54;98776.53;5488461;26;20769;-82
2024/04/08 03:42:04;;;;;;;17.25;5.75;;;14.40;99.90;;;19.51;55.71;98772.03;5559759;25;20477;-81
2024/04/08 03:44:35;;;;;;;9.85;4.68;;;14.40;99.90;;;19.51;56.18;98771.22;5563148;25;20005;-80
2024/04/08 03:47:10;;;;;;;13.77;4.70;;;14.30;99.90;;;19.49;55.70;98763.44;5562586;25;20540;-82
2024/04/08 03:49:37;;;;;;;11.52;4.57;;;14.30;99.90;;;19.46;55.72;98762.94;5543511;25;19997;-81
2024/04/08 03:52:13;;;;;;;11.70;5.72;;;14.30;99.90;;;19.42;55.82;98761.63;5525795;26;20005;-81
2024/04/08 03:54:46;;;;;;;9.18;4.60;;;14.30;99.90;;;19.41;55.67;98766.09;5528712;25;19997;-80
2024/04/08 03:57:13;;;;;;;8.15;4.43;;;14.30;99.90;;;19.38;55.73;98753.16;5556682;25;20012;-81
2024/04/08 04:00:01;;;;;;;11.88;4.75;;;14.30;99.90;;;19.32;55.59;98766.28;5561736;25;20000;-81
2024/04/08 04:02:28;;;;;;;11.63;4.95;;;14.30;99.90;;;19.36;55.17;98762.28;5563406;25;20434;-83
2024/04/08 04:04:59;;;;;;;10.07;4.60;;;14.20;99.90;;;19.35;55.26;98765.94;5531579;25;20795;-81
2024/04/08 04:07:26;;;;;;;7.68;4.40;;;14.20;99.90;;;19.33;55.24;98760.78;5558477;25;20001;-80
2024/04/08 04:10:04;;;;;;;9.93;4.70;;;14.20;99.90;;;19.32;55.72;98758.31;5530875;25;20013;-78
2024/04/08 04:12:33;;;;;;;7.82;4.50;;;14.20;99.90;;;19.33;55.47;98754.69;5548855;25;20004;-79
2024/04/08 04:15:11;;;;;;;14.77;5.18;;;14.20;99.90;;;19.34;55.18;98764.28;5559116;25;20366;-81
2024/04/08 04:17:43;;;;;;;15.18;5.60;;;14.20;99.90;;;19.27;55.44;98761.47;5566213;25;20030;-82
2024/04/08 04:20:24;;;;;;;8.63;4.60;;;14.10;99.90;;;19.24;55.07;98755.69;5566435;25;20015;-81
2024/04/08 04:22:51;;;;;;;11.30;5.32;;;14.10;99.90;;;19.22;55.29;98758.50;5556342;25;20016;-79
2024/04/08 04:25:24;;;;;;;11.20;5.38;;;14.10;99.90;;;19.20;55.35;98760.50;5542490;25;20069;-78
2024/04/08 04:27:57;;;;;;;14.93;5.63;;;14.10;99.90;;;19.18;55.23;98760.69;5544921;25;20012;-78
2024/04/08 04:30:32;;;;;;;14.05;5.93;;;14.10;99.90;;;19.17;55.82;98753.72;5548442;25;20490;-78
2024/04/08 04:33:05;;;;;;;13.75;5.45;;;14.00;99.90;;;19.16;55.14;98759.22;5560633;25;20005;-79
2024/04/08 04:35:35;;;;;;;10.48;5.25;;;14.10;99.90;;;19.14;55.47;98762.00;5548447;25;20000;-77
2024/04/08 04:38:08;;;;;;;11.95;5.18;;;14.00;99.90;;;19.12;55.41;98766.69;5518798;25;20002;-77
2024/04/08 04:40:46;;;;;;;13.55;4.88;;;13.90;99.90;;;19.08;55.80;98764.53;5514863;25;20021;-78
2024/04/08 04:43:19;;;;;;;15.65;5.50;;;13.90;99.90;;;19.07;55.61;98765.50;5535546;25;20003;-79
2024/04/08 04:45:49;;;;;;;12.45;4.95;;;14.00;99.90;;;19.06;55.70;98755.91;5548330;25;20549;-78
2024/04/08 04:48:22;;;;;;;15.20;5.47;;;13.90;99.90;;;19.05;55.49;98754.25;5554300;25;20005;-78
2024/04/08 04:50:57;;;;;;;12.35;5.18;;;13.90;99.90;;;19.01;55.76;98763.53;5558849;25;20080;-78
2024/04/08 04:53:29;;;;;;;12.68;4.95;;;13.90;99.90;;;18.97;55.58;98760.38;5558357;25;20466;-77
2024/04/08 04:56:02;;;;;;;13.05;4.45;;;13.90;99.90;;;19.01;55.86;98769.69;5554429;25;20945;-77
2024/04/08 04:58:35;;;;;;;16.42;5.22;;;13.90;99.90;;;19.03;55.68;98780.94;5546434;25;20008;-76
2024/04/08 05:01:24;;;;;;;17.25;5.07;;;13.90;99.90;;;18.99;55.52;98771.69;5556295;25;20027;-78
2024/04/08 05:03:52;;;;;;;13.48;5.03;;;13.90;99.90;;;19.04;55.34;98773.81;5524242;25;20008;-76
2024/04/08 05:06:27;;;;;;;8.50;4.85;;;13.80;99.90;;;19.01;55.67;98771.50;5537119;25;20004;-77
2024/04/08 05:08:56;;;;;;;11.40;4.97;;;13.90;99.90;;;19.02;55.67;98779.31;5545378;25;20004;-77
2024/04/08 05:11:34;;;;;;;13.80;5.72;;;13.80;99.90;;;19.02;55.94;98776.66;5540591;25;20772;-77
2024/04/08 05:14:07;;;;;;;11.50;4.47;;;13.80;99.90;;;19.02;55.40;98779.31;5537970;25;20012;-76
2024/04/08 05:16:42;;;;;;;10.55;5.03;;;13.80;99.90;;;19.04;55.70;98792.38;5525308;25;20013;-77
2024/04/08 05:19:14;;;;;;;11.40;5.03;;;13.80;99.90;;;19.04;55.48;98793.22;5524500;25;20005;-77
2024/04/08 05:21:45;;;;;;;10.50;4.75;;;13.90;99.90;;;19.05;55.83;98792.22;5538848;25;20004;-76
2024/04/08 05:24:18;;;;;;;10.55;4.80;;;13.90;99.90;;;19.09;55.60;98796.19;5539096;25;19996;-75
2024/04/08 05:26:56;;;;;;;12.23;5.50;;;13.90;99.90;;;19.11;55.37;98802.16;5535493;25;20571;-77
2024/04/08 05:29:28;;;;;;;11.27;5.10;;;14.00;99.90;;;19.13;55.33;98800.16;5550294;25;20518;-76
2024/04/08 05:32:04;;;;;;;12.15;5.00;;;14.10;99.90;;;19.18;55.39;98799.66;5538603;25;19997;-78
2024/04/08 05:34:36;;;;;;;12.52;4.80;;;14.20;99.90;;;19.25;55.40;98803.28;5524098;25;22650;-77
2024/04/08 05:37:11;;;;;;;14.07;4.65;;;14.30;99.90;;;19.29;55.33;98811.75;5516176;25;20031;-77
2024/04/08 05:39:44;;;;;;;12.75;4.32;;;14.30;99.90;;;19.35;54.95;98803.94;5538808;25;19997;-75
2024/04/08 05:42:35;;;;;;;10.45;4.07;;;14.50;99.90;;;19.42;55.01;98806.75;5542683;25;20451;-76
2024/04/08 05:45:08;;;;;;;11.85;4.63;;;14.60;99.90;;;19.44;54.63;98799.44;5542202;25;20474;-76
2024/04/08 05:47:38;;;;;;;12.35;5.10;;;14.60;99.90;;;19.43;54.95;98803.13;5543457;25;20004;-76
2024/04/08 05:50:11;;;;;;;10.55;4.53;;;14.70;99.90;;;19.48;55.00;98808.72;5542198;25;20009;-76
2024/04/08 05:52:41;;;;;;;13.75;5.22;;;14.80;99.90;;;19.54;54.86;98797.41;5547605;25;20040;-76
2024/04/08 05:55:14;;;;;;;8.68;3.88;;;14.90;99.90;;;19.59;54.61;98803.84;5536646;25;20024;-76
2024/04/08 05:57:47;;;;;;;13.55;4.63;;;15.00;99.90;;;19.65;54.37;98810.31;5543927;25;19997;-77
2024/04/08 06:00:20;;;;;;;12.32;5.18;;;15.10;99.90;;;19.71;54.65;98814.94;5553001;25;20011;-76
2024/04/08 06:02:54;;;;;;;12.10;4.60;;;15.30;99.90;;;19.84;54.25;98814.38;5559867;25;20052;-76
2024/04/08 06:05:24;;;;;;;7.32;4.03;;;15.50;99.90;;;19.96;53.94;98808.50;5545177;25;19997;-77
2024/04/08 06:07:59;;;;;;;16.60;3.92;;;15.60;99.90;;;20.06;53.71;98817.09;5559601;25;20477;-77
2024/04/08 06:10:34;;;;;;;11.82;4.35;;;15.80;99.90;;;20.17;53.40;98808.72;5562807;25;20005;-76
2024/04/08 06:13:07;;;;;;;14.25;4.97;;;15.90;99.90;;;20.28;53.04;98802.22;5561776;25;20020;-77
2024/04/08 06:15:40;;;;;;;11.45;4.47;;;16.00;99.90;;;20.37;52.82;98808.28;5559676;25;20015;-77
2024/04/08 06:18:15;;;;;;;10.23;4.38;;;18.10;99.90;;;20.49;52.51;98815.66;5559006;25;20005;-77
2024/04/08 06:20:53;;;;;;;10.27;3.88;;;16.40;99.90;;;20.65;52.56;98814.72;5559827;25;20000;-77
2024/04/08 06:23:29;;;;;;;12.70;4.60;;;16.60;99.90;;;20.79;52.55;98816.59;5560141;25;20824;-78
2024/04/08 06:26:02;;;;;;;8.93;4.35;;;16.70;99.90;;;20.90;51.64;98818.00;5560987;25;20001;-78
2024/04/08 06:28:40;;;;;;;9.85;3.97;;;16.70;99.90;;;20.99;51.87;98807.09;5542390;25;19997;-78
2024/04/08 06:31:16;;;;;;;13.43;4.65;;;16.80;99.90;;;21.13;51.72;98811.66;5530153;25;20068;-78
2024/04/08 06:33:46;;;;;;;8.68;4.13;;;17.00;99.80;;;21.21;51.10;98816.88;5503373;25;19997;-77
2024/04/08 06:36:22;;;;;;;10.82;4.70;;;17.00;98.60;;;21.25;50.76;98820.00;5541260;25;19993;-78
2024/04/08 06:38:57;;;;;;;11.75;4.88;;;17.00;98.90;;;21.31;50.75;98831.75;5538247;25;19997;-78
2024/04/08 06:41:30;;;;;;;12.38;4.22;;;17.00;99.10;;;21.38;50.44;98827.34;5543513;25;20016;-78
2024/04/08 06:44:07;;;;;;;14.65;4.45;;;17.00;99.30;;;21.51;50.52;98824.88;5561725;25;20015;-78
2024/04/08 06:46:40;;;;;;;9.35;4.28;;;17.20;98.90;;;21.60;50.53;98823.81;5561904;25;20016;-78
2024/04/08 06:49:15;;;;;;;12.50;3.78;;;17.30;98.60;;;21.67;50.17;98814.88;5521902;26;20016;-77
2024/04/08 06:51:48;;;;;;;13.52;4.72;;;17.50;98.00;;;21.77;50.04;98814.56;5523114;25;20001;-76
2024/04/08 06:54:23;;;;;;;15.95;4.70;;;17.60;97.00;;;21.88;50.08;98810.63;5539198;25;20019;-78
2024/04/08 06:56:56;;;;;;;13.18;4.93;;;17.80;96.10;;;21.90;50.02;98814.78;5560046;25;20008;-79
2024/04/08 06:59:28;;;;;;;18.30;5.55;;;17.80;96.00;;;21.96;49.35;98824.72;5559897;25;20008;-79
2024/04/08 07:02:03;;;;;;;13.05;6.15;;;17.80;95.90;;;22.02;49.49;98821.28;5537887;25;20349;-76
2024/04/08 07:04:39;;;;;;;14.73;5.13;;;18.00;95.10;;;22.10;48.84;98812.34;5559026;25;20001;-78
2024/04/08 07:07:14;;;;;;;16.30;5.68;;;18.00;95.10;;;22.19;49.63;98811.22;5561377;25;20011;-77
2024/04/08 07:09:46;;;;;;;15.75;5.82;;;18.20;95.10;;;22.30;49.18;98813.38;5561631;25;20464;-77
2024/04/08 07:12:22;;;;;;;25.55;6.05;;;18.30;94.80;;;22.41;49.18;98822.72;5559692;25;20004;-78
2024/04/08 07:14:57;;;;;;;11.60;5.35;;;18.40;94.40;;;22.49;49.25;98823.41;5560365;25;20012;-78
2024/04/08 07:17:32;;;;;;;16.45;5.15;;;18.40;94.40;;;22.57;48.94;98820.63;5534420;25;20012;-78
2024/04/08 07:20:06;;;;;;;11.82;5.00;;;18.50;94.40;;;22.72;48.59;98825.94;5560950;25;20001;-77
2024/04/08 07:22:43;;;;;;;16.70;6.13;;;18.70;94.20;;;22.80;48.42;98831.13;5535831;25;20005;-78
2024/04/08 07:25:11;;;;;;;12.90;5.20;;;18.80;93.80;;;22.96;48.53;98838.03;5533169;25;20005;-77
2024/04/08 07:27:47;;;;;;;19.30;5.78;;;19.00;92.80;;;23.09;48.33;98833.63;5561533;25;20016;-77
2024/04/08 07:30:18;;;;;;;16.17;5.55;;;19.00;92.50;;;23.22;48.35;98828.38;5528179;25;20005;-77
2024/04/08 07:32:48;;;;;;;16.10;6.18;;;19.10;92.50;;;23.38;48.37;98829.13;5553052;25;20012;-78
2024/04/08 07:35:21;;;;;;;11.05;6.07;;;19.30;92.00;;;23.52;48.00;98828.19;5561017;25;20005;-77
2024/04/08 07:37:51;;;;;;;18.25;6.07;;;19.50;91.80;;;23.64;47.48;98835.50;5549834;25;20005;-77
2024/04/08 07:40:19;;;;;;;15.75;7.30;;;19.70;90.90;;;23.81;47.63;98838.63;5554591;25;20009;-78
2024/04/08 07:42:54;;;;;;;17.90;11.48;;;19.90;90.50;;;23.95;47.33;98842.19;5560838;25;20004;-77
2024/04/08 07:45:29;;;;;;;23.35;12.05;;;20.10;90.20;;;24.07;47.34;98844.09;5560956;25;20000;-77
2024/04/08 07:47:59;;;;;;;30.33;17.58;;;20.10;89.80;;;24.20;47.69;98830.78;5561123;25;20975;-77
2024/04/08 07:50:32;;;;;;;33.00;20.30;;;20.50;90.40;;;24.41;47.31;98827.16;5560499;25;20394;-77
2024/04/08 07:53:09;;;;;;;32.05;22.60;;;20.60;89.70;;;24.56;47.21;98833.16;5561484;25;20075;-78
2024/04/08 07:55:41;;;;;;;40.20;25.75;;;20.70;89.50;;;24.65;47.20;98839.97;5560519;25;20004;-78
2024/04/08 07:58:17;;;;;;;34.65;21.85;;;20.70;89.70;;;24.79;46.81;98838.97;5560554;25;20005;-77
2024/04/08 08:00:59;;;;;;;38.00;23.80;;;21.00;89.50;;;24.99;46.82;98841.69;5559160;25;20001;-77
2024/04/08 08:03:34;;;;;;;39.53;23.75;;;21.20;88.90;;;25.17;46.42;98833.81;5523560;26;20005;-77
2024/04/08 08:06:07;;;;;;;33.50;21.88;;;21.50;87.80;;;25.24;46.19;98826.59;5523189;26;20001;-77
2024/04/08 08:08:42;;;;;;;31.60;19.92;;;21.50;87.40;;;25.38;45.96;98830.09;5520581;26;20749;-77
2024/04/08 08:11:17;;;;;;;31.70;18.63;;;21.70;86.80;;;25.60;45.77;98831.50;5523011;26;20082;-76
2024/04/08 08:13:48;;;;;;;29.85;18.67;;;21.90;85.90;;;25.78;45.34;98823.59;5523584;26;20017;-77
2024/04/08 08:16:25;;;;;;;28.77;16.73;;;22.20;85.40;;;25.94;44.53;98830.38;5523144;25;20006;-77
2024/04/08 08:19:00;;;;;;;27.65;16.40;;;22.20;83.40;;;25.97;44.41;98832.63;5522018;26;20006;-77
2024/04/08 08:21:31;;;;;;;33.78;17.83;;;22.10;83.40;;;25.95;44.35;98831.22;5520451;26;20016;-77
2024/04/08 08:24:06;;;;;;;23.08;16.20;;;22.00;83.30;;;25.89;43.97;98832.84;5521308;26;20368;-77
2024/04/08 08:26:42;;;;;;;30.52;17.65;;;21.80;83.50;;;25.80;44.40;98839.50;5522874;26;20006;-77
2024/04/08 08:29:17;;;;;;;25.63;16.02;;;21.70;83.90;;;25.74;44.45;98843.84;5523291;26;20017;-78
2024/04/08 08:31:55;;;;;;;26.52;16.15;;;21.60;84.30;;;25.71;44.33;98840.78;5539225;25;20339;-77
2024/04/08 08:34:31;;;;;;;24.52;16.25;;;21.80;84.20;;;25.83;44.57;98844.44;5560794;25;20000;-77
2024/04/08 08:37:03;;;;;;;26.83;17.55;;;22.10;83.70;;;25.99;44.25;98843.13;5561019;25;20011;-78
2024/04/08 08:39:39;;;;;;;25.95;16.15;;;22.40;82.90;;;26.14;43.83;98836.47;5543603;25;20016;-77
2024/04/08 08:42:18;;;;;;;41.97;22.48;;;22.60;82.40;;;26.34;43.89;98841.78;5526568;25;20004;-78
2024/04/08 08:44:53;;;;;;;39.83;24.67;;;22.70;81.40;;;26.44;43.90;98849.38;5560222;25;20008;-77
2024/04/08 08:47:29;;;;;;;29.88;17.20;;;22.80;81.30;;;26.50;43.67;98852.00;5560034;25;20001;-77
2024/04/08 08:50:02;;;;;;;26.53;15.50;;;22.90;81.20;;;26.65;43.56;98843.63;5558813;25;20005;-78
2024/04/08 08:52:35;;;;;;;25.60;15.43;;;23.10;80.90;;;26.85;43.18;98848.91;5522506;26;20825;-77
2024/04/08 08:55:12;;;;;;;24.13;14.13;;;23.40;80.10;;;27.02;43.38;98842.78;5522286;26;20020;-77
2024/04/08 08:57:44;;;;;;;24.92;15.05;;;23.40;80.10;;;27.12;43.05;98835.03;5522365;26;20005;-78
2024/04/08 09:00:18;;;;;;;25.50;14.05;;;23.50;79.50;;;27.26;42.62;98833.88;5521978;26;20453;-78
2024/04/08 09:02:53;;;;;;;23.23;13.57;;;23.70;79.20;;;27.42;42.36;98837.03;5521879;26;20001;-78
2024/04/08 09:05:24;;;;;;;28.02;15.82;;;23.80;79.00;;;27.46;41.92;98835.59;5522564;26;20016;-77
2024/04/08 09:07:59;;;;;;;22.30;14.98;;;23.40;78.20;;;27.34;42.14;98843.53;5522160;26;20002;-77
2024/04/08 09:10:27;;;;;;;26.30;15.48;;;23.50;79.10;;;27.41;42.14;98844.28;5549188;25;20104;-77
2024/04/08 09:13:03;;;;;;;28.17;14.25;;;23.80;79.00;;;27.58;42.18;98836.50;5559587;25;20019;-78
2024/04/08 09:15:35;;;;;;;24.65;13.88;;;24.20;78.00;;;27.75;41.78;98840.25;5559491;25;20001;-77
2024/04/08 09:18:13;;;;;;;28.27;16.17;;;24.20;77.20;;;27.84;41.24;98838.88;5557377;25;20001;-77
2024/04/08 09:20:46;;;;;;;26.13;14.65;;;24.00;77.10;;;27.94;41.72;98836.50;5558288;25;20004;-77
2024/04/08 09:23:21;;;;;;;21.35;12.73;;;24.10;77.40;;;28.04;41.06;98838.66;5559424;25;20004;-77
2024/04/08 09:25:56;;;;;;;23.10;13.25;;;24.30;77.00;;;28.12;40.53;98833.81;5559567;25;20016;-77
2024/04/08 09:28:31;;;;;;;23.60;13.07;;;24.20;76.30;;;28.12;40.90;98828.44;5558677;25;20000;-77
2024/04/08 09:31:06;;;;;;;21.67;13.70;;;24.10;76.40;;;28.15;40.35;98827.97;5550625;25;20002;-77
2024/04/08 09:33:39;;;;;;;21.27;12.90;;;24.10;76.50;;;28.20;39.94;98828.09;5563075;25;20766;-77
2024/04/08 09:36:12;;;;;;;21.35;13.13;;;24.00;75.50;;;28.23;40.29;98824.97;5562201;25;20465;-77
2024/04/08 09:38:49;;;;;;;24.05;11.75;;;24.30;75.60;;;28.40;40.23;98818.94;5533276;25;20116;-78
2024/04/08 09:41:23;;;;;;;26.23;13.95;;;24.60;75.40;;;28.37;39.55;98812.13;5554991;25;20004;-77
2024/04/08 09:43:59;;;;;;;24.98;13.05;;;24.40;74.00;;;28.41;39.39;98817.88;5547909;25;20012;-77
2024/04/08 09:46:32;;;;;;;22.55;12.70;;;24.30;74.10;;;28.41;39.72;98820.56;5558614;25;20005;-78
2024/04/08 09:49:13;;;;;;;21.35;12.75;;;24.40;74.10;;;28.44;39.61;98820.13;5557110;25;20339;-77
2024/04/08 09:51:47;;;;;;;24.83;12.67;;;24.40;74.00;;;28.52;39.94;98814.41;5555908;25;20027;-77
2024/04/08 09:54:22;;;;;;;26.42;13.65;;;24.70;74.20;;;28.66;39.54;98810.47;5544346;25;20884;-77
2024/04/08 09:56:58;;;;;;;25.00;13.63;;;25.00;73.40;;;28.80;38.82;98801.97;5540016;25;20075;-77
2024/04/08 09:59:30;;;;;;;25.33;12.63;;;24.90;72.00;;;28.90;38.97;98804.09;5534023;25;20017;-77
2024/04/08 10:02:05;;;;;;;20.50;13.32;;;25.10;72.80;;;29.03;38.91;98800.34;5557888;25;20001;-78
2024/04/08 10:04:45;;;;;;;25.50;14.15;;;25.30;71.50;;;29.11;38.80;98790.03;5548691;25;20008;-77
2024/04/08 10:07:13;;;;;;;29.23;15.30;;;25.40;71.90;;;29.28;38.31;98800.97;5526675;25;20016;-78
2024/04/08 10:09:48;;;;;;;27.45;16.02;;;25.60;70.30;;;29.33;37.74;98801.91;5553022;25;20490;-78
2024/04/08 10:12:30;;;;;;;22.75;15.50;;;25.30;70.60;;;29.33;37.76;98796.53;5544732;25;20001;-77
2024/04/08 10:15:12;;;;;;;25.10;15.75;;;25.40;70.00;;;29.39;37.65;98799.31;5553126;25;20013;-77
2024/04/08 10:17:46;;;;;;;22.98;13.88;;;25.30;69.80;;;29.42;37.78;98785.34;5551448;25;20453;-78
2024/04/08 10:20:25;;;;;;;25.45;14.77;;;25.30;70.50;;;29.45;38.08;98790.28;5553819;25;20005;-78
2024/04/08 10:22:57;;;;;;;21.92;13.80;;;25.50;70.50;;;29.52;38.14;98793.66;5553056;25;20005;-78
2024/04/08 10:25:40;;;;;;;26.27;14.10;;;25.70;69.60;;;29.69;37.81;98791.88;5553235;25;20550;-78
2024/04/08 10:28:14;;;;;;;27.52;15.00;;;26.00;68.90;;;29.63;37.25;98790.13;5542952;25;20742;-77
2024/04/08 10:30:46;;;;;;;25.70;14.27;;;25.70;68.10;;;29.71;37.32;98789.75;5536043;25;19997;-77
2024/04/08 10:33:22;;;;;;;29.20;16.15;;;25.80;68.10;;;29.79;37.70;98779.44;5536010;25;20042;-77